Terminal Aerodrome Forecast
Issued by NWS Milwaukee/Sullivan, WI

Home | Current Version | Previous Version | Text Only | Print | Product List | Glossary On
Versions: 1 2 3 4 5 6 7 8 9 10 11 12 13 14 15 16 17 18 19 20 21 22 23 24 25 26 27 28 29 30 31 32 33 34 35 36 37 38 39
000
FTUS43 KMKX 271506 AAA
TAFMSN
TAF AMD
KMSN 271506Z 2715/2812 24012G20KT P6SM OVC010
     FM271800 27014G21KT P6SM OVC015
     FM280000 30009KT P6SM BKN025
     FM280200 29007KT P6SM SCT025
     FM280600 29006KT P6SM SCT250=

USA.gov is the U.S. government's official web portal to all federal, state and local government web resources and services.